sensor_id;sensor_type;location;lat;lon;timestamp;P1;durP1;ratioP1;P2;durP2;ratioP2
37895;SDS011;23733;53.254;10.430;2023-08-31T00:01:14;6.17;;;5.10;;
37895;SDS011;23733;53.254;10.430;2023-08-31T00:03:41;8.53;;;5.73;;
37895;SDS011;23733;53.254;10.430;2023-08-31T00:06:07;6.90;;;5.73;;
37895;SDS011;23733;53.254;10.430;2023-08-31T00:08:34;6.80;;;5.70;;
37895;SDS011;23733;53.254;10.430;2023-08-31T00:11:00;6.90;;;5.77;;
37895;SDS011;23733;53.254;10.430;2023-08-31T00:13:27;6.43;;;5.80;;
37895;SDS011;23733;53.254;10.430;2023-08-31T00:15:54;9.33;;;6.10;;
37895;SDS011;23733;53.254;10.430;2023-08-31T00:18:21;7.27;;;5.80;;
37895;SDS011;23733;53.254;10.430;2023-08-31T00:20:47;6.87;;;5.90;;
37895;SDS011;23733;53.254;10.430;2023-08-31T00:23:14;6.87;;;5.83;;
37895;SDS011;23733;53.254;10.430;2023-08-31T00:25:40;6.43;;;5.60;;
37895;SDS011;23733;53.254;10.430;2023-08-31T00:28:09;6.80;;;5.73;;
37895;SDS011;23733;53.254;10.430;2023-08-31T00:30:35;6.80;;;5.47;;
37895;SDS011;23733;53.254;10.430;2023-08-31T00:33:01;6.40;;;5.63;;
37895;SDS011;23733;53.254;10.430;2023-08-31T00:35:29;5.90;;;5.30;;
37895;SDS011;23733;53.254;10.430;2023-08-31T00:37:55;6.77;;;5.53;;
37895;SDS011;23733;53.254;10.430;2023-08-31T00:40:25;7.57;;;5.70;;
37895;SDS011;23733;53.254;10.430;2023-08-31T00:42:53;8.10;;;5.63;;
37895;SDS011;23733;53.254;10.430;2023-08-31T00:45:20;6.20;;;5.60;;
37895;SDS011;23733;53.254;10.430;2023-08-31T00:47:48;6.60;;;5.57;;
37895;SDS011;23733;53.254;10.430;2023-08-31T00:50:15;7.07;;;5.80;;
37895;SDS011;23733;53.254;10.430;2023-08-31T00:52:41;6.00;;;5.27;;
37895;SDS011;23733;53.254;10.430;2023-08-31T00:55:12;9.07;;;6.17;;
37895;SDS011;23733;53.254;10.430;2023-08-31T00:57:39;6.60;;;5.63;;
37895;SDS011;23733;53.254;10.430;2023-08-31T01:00:06;6.60;;;5.67;;
37895;SDS011;23733;53.254;10.430;2023-08-31T01:02:47;9.43;;;6.53;;
37895;SDS011;23733;53.254;10.430;2023-08-31T01:05:33;7.53;;;6.23;;
37895;SDS011;23733;53.254;10.430;2023-08-31T01:10:59;8.20;;;5.67;;
37895;SDS011;23733;53.254;10.430;2023-08-31T01:13:28;7.90;;;5.53;;
37895;SDS011;23733;53.254;10.430;2023-08-31T01:15:59;8.23;;;5.70;;
37895;SDS011;23733;53.254;10.430;2023-08-31T01:18:26;6.53;;;5.77;;
37895;SDS011;23733;53.254;10.430;2023-08-31T01:23:19;7.90;;;6.00;;
37895;SDS011;23733;53.254;10.430;2023-08-31T01:25:47;8.43;;;6.57;;
37895;SDS011;23733;53.254;10.430;2023-08-31T01:28:13;6.33;;;5.67;;
37895;SDS011;23733;53.254;10.430;2023-08-31T01:30:40;7.57;;;6.03;;
37895;SDS011;23733;53.254;10.430;2023-08-31T01:33:07;7.33;;;6.50;;
37895;SDS011;23733;53.254;10.430;2023-08-31T01:35:34;7.80;;;6.50;;
37895;SDS011;23733;53.254;10.430;2023-08-31T01:38:03;8.23;;;6.07;;
37895;SDS011;23733;53.254;10.430;2023-08-31T01:43:18;9.83;;;6.30;;
37895;SDS011;23733;53.254;10.430;2023-08-31T01:45:45;7.10;;;5.80;;
37895;SDS011;23733;53.254;10.430;2023-08-31T01:48:13;7.87;;;5.93;;
37895;SDS011;23733;53.254;10.430;2023-08-31T01:50:40;6.30;;;5.67;;
37895;SDS011;23733;53.254;10.430;2023-08-31T01:53:06;7.13;;;5.70;;
37895;SDS011;23733;53.254;10.430;2023-08-31T01:55:33;8.77;;;5.90;;
37895;SDS011;23733;53.254;10.430;2023-08-31T01:57:59;5.83;;;5.07;;
37895;SDS011;23733;53.254;10.430;2023-08-31T02:00:26;8.57;;;5.37;;
37895;SDS011;23733;53.254;10.430;2023-08-31T02:02:53;5.93;;;5.23;;
37895;SDS011;23733;53.254;10.430;2023-08-31T02:05:19;8.57;;;5.70;;
37895;SDS011;23733;53.254;10.430;2023-08-31T02:07:46;6.57;;;5.40;;
37895;SDS011;23733;53.254;10.430;2023-08-31T02:10:12;9.20;;;5.50;;
37895;SDS011;23733;53.254;10.430;2023-08-31T02:12:38;6.93;;;5.63;;
37895;SDS011;23733;53.254;10.430;2023-08-31T02:15:05;9.30;;;5.43;;
37895;SDS011;23733;53.254;10.430;2023-08-31T02:17:32;6.50;;;5.17;;
37895;SDS011;23733;53.254;10.430;2023-08-31T02:19:58;6.57;;;5.00;;
37895;SDS011;23733;53.254;10.430;2023-08-31T02:22:25;5.67;;;4.80;;
37895;SDS011;23733;53.254;10.430;2023-08-31T02:24:52;8.40;;;5.60;;
37895;SDS011;23733;53.254;10.430;2023-08-31T02:27:18;10.60;;;5.00;;
37895;SDS011;23733;53.254;10.430;2023-08-31T02:29:44;8.50;;;4.80;;
37895;SDS011;23733;53.254;10.430;2023-08-31T02:32:11;7.03;;;4.70;;
37895;SDS011;23733;53.254;10.430;2023-08-31T02:34:37;6.40;;;5.10;;
37895;SDS011;23733;53.254;10.430;2023-08-31T02:37:04;6.53;;;4.50;;
37895;SDS011;23733;53.254;10.430;2023-08-31T02:39:30;5.60;;;4.50;;
37895;SDS011;23733;53.254;10.430;2023-08-31T02:41:56;6.83;;;4.40;;
37895;SDS011;23733;53.254;10.430;2023-08-31T02:44:23;5.43;;;4.47;;
37895;SDS011;23733;53.254;10.430;2023-08-31T02:46:49;6.17;;;4.50;;
37895;SDS011;23733;53.254;10.430;2023-08-31T02:49:15;5.70;;;4.37;;
37895;SDS011;23733;53.254;10.430;2023-08-31T02:51:42;7.73;;;4.57;;
37895;SDS011;23733;53.254;10.430;2023-08-31T02:54:08;6.40;;;4.47;;
37895;SDS011;23733;53.254;10.430;2023-08-31T02:56:34;8.00;;;4.70;;
37895;SDS011;23733;53.254;10.430;2023-08-31T02:59:01;6.67;;;4.57;;
37895;SDS011;23733;53.254;10.430;2023-08-31T03:01:27;5.53;;;4.00;;
37895;SDS011;23733;53.254;10.430;2023-08-31T03:03:53;7.80;;;4.10;;
37895;SDS011;23733;53.254;10.430;2023-08-31T03:06:20;6.90;;;4.00;;
37895;SDS011;23733;53.254;10.430;2023-08-31T03:08:46;6.10;;;4.00;;
37895;SDS011;23733;53.254;10.430;2023-08-31T03:11:12;8.47;;;3.93;;
37895;SDS011;23733;53.254;10.430;2023-08-31T03:13:40;6.23;;;3.73;;
37895;SDS011;23733;53.254;10.430;2023-08-31T03:16:06;4.70;;;3.70;;
37895;SDS011;23733;53.254;10.430;2023-08-31T03:18:33;5.30;;;3.60;;
37895;SDS011;23733;53.254;10.430;2023-08-31T03:20:59;5.87;;;3.70;;
37895;SDS011;23733;53.254;10.430;2023-08-31T03:23:26;6.60;;;3.63;;
37895;SDS011;23733;53.254;10.430;2023-08-31T03:25:53;6.00;;;3.50;;
37895;SDS011;23733;53.254;10.430;2023-08-31T03:28:20;8.30;;;4.20;;
37895;SDS011;23733;53.254;10.430;2023-08-31T03:30:53;4.67;;;3.47;;
37895;SDS011;23733;53.254;10.430;2023-08-31T03:33:20;5.57;;;3.87;;
37895;SDS011;23733;53.254;10.430;2023-08-31T03:35:46;8.80;;;4.27;;
37895;SDS011;23733;53.254;10.430;2023-08-31T03:38:12;5.90;;;3.50;;
37895;SDS011;23733;53.254;10.430;2023-08-31T03:40:38;4.63;;;3.40;;
37895;SDS011;23733;53.254;10.430;2023-08-31T03:43:05;4.73;;;3.30;;
37895;SDS011;23733;53.254;10.430;2023-08-31T03:45:31;6.10;;;3.20;;
37895;SDS011;23733;53.254;10.430;2023-08-31T03:47:57;3.30;;;3.00;;
37895;SDS011;23733;53.254;10.430;2023-08-31T03:50:24;5.73;;;3.50;;
37895;SDS011;23733;53.254;10.430;2023-08-31T03:52:50;5.20;;;3.63;;
37895;SDS011;23733;53.254;10.430;2023-08-31T03:55:17;3.67;;;2.70;;
37895;SDS011;23733;53.254;10.430;2023-08-31T03:57:43;4.67;;;3.00;;
37895;SDS011;23733;53.254;10.430;2023-08-31T04:00:10;7.93;;;3.17;;
37895;SDS011;23733;53.254;10.430;2023-08-31T04:02:38;3.93;;;2.80;;
37895;SDS011;23733;53.254;10.430;2023-08-31T04:05:04;6.50;;;2.80;;
37895;SDS011;23733;53.254;10.430;2023-08-31T04:07:31;5.17;;;2.63;;
37895;SDS011;23733;53.254;10.430;2023-08-31T04:09:57;5.60;;;2.60;;
37895;SDS011;23733;53.254;10.430;2023-08-31T04:12:24;4.27;;;2.70;;
37895;SDS011;23733;53.254;10.430;2023-08-31T04:14:50;7.30;;;2.97;;
37895;SDS011;23733;53.254;10.430;2023-08-31T04:17:17;4.63;;;2.77;;
37895;SDS011;23733;53.254;10.430;2023-08-31T04:19:43;4.23;;;2.50;;
37895;SDS011;23733;53.254;10.430;2023-08-31T04:22:09;6.20;;;2.97;;
37895;SDS011;23733;53.254;10.430;2023-08-31T04:24:36;8.30;;;3.00;;
37895;SDS011;23733;53.254;10.430;2023-08-31T04:27:02;5.83;;;2.93;;
37895;SDS011;23733;53.254;10.430;2023-08-31T04:29:28;4.17;;;2.67;;
37895;SDS011;23733;53.254;10.430;2023-08-31T04:31:55;4.80;;;2.90;;
37895;SDS011;23733;53.254;10.430;2023-08-31T04:34:21;6.87;;;3.10;;
37895;SDS011;23733;53.254;10.430;2023-08-31T04:36:48;4.80;;;2.77;;
37895;SDS011;23733;53.254;10.430;2023-08-31T04:39:15;3.33;;;2.80;;
37895;SDS011;23733;53.254;10.430;2023-08-31T04:41:41;4.70;;;2.83;;
37895;SDS011;23733;53.254;10.430;2023-08-31T04:44:07;4.23;;;3.07;;
37895;SDS011;23733;53.254;10.430;2023-08-31T04:46:33;4.67;;;3.30;;
37895;SDS011;23733;53.254;10.430;2023-08-31T04:49:00;5.67;;;3.27;;
37895;SDS011;23733;53.254;10.430;2023-08-31T04:51:27;5.43;;;3.17;;
37895;SDS011;23733;53.254;10.430;2023-08-31T04:53:53;7.03;;;3.33;;
37895;SDS011;23733;53.254;10.430;2023-08-31T04:56:20;5.00;;;3.13;;
37895;SDS011;23733;53.254;10.430;2023-08-31T04:58:46;4.47;;;3.10;;
37895;SDS011;23733;53.254;10.430;2023-08-31T05:01:12;6.70;;;4.17;;
37895;SDS011;23733;53.254;10.430;2023-08-31T05:03:39;7.67;;;3.60;;
37895;SDS011;23733;53.254;10.430;2023-08-31T05:06:06;4.43;;;3.50;;
37895;SDS011;23733;53.254;10.430;2023-08-31T05:08:33;8.23;;;3.70;;
37895;SDS011;23733;53.254;10.430;2023-08-31T05:10:59;7.50;;;3.77;;
37895;SDS011;23733;53.254;10.430;2023-08-31T05:13:25;6.03;;;3.40;;
37895;SDS011;23733;53.254;10.430;2023-08-31T05:15:52;5.67;;;3.57;;
37895;SDS011;23733;53.254;10.430;2023-08-31T05:18:18;5.80;;;3.70;;
37895;SDS011;23733;53.254;10.430;2023-08-31T05:20:45;7.17;;;3.57;;
37895;SDS011;23733;53.254;10.430;2023-08-31T05:23:14;8.47;;;4.00;;
37895;SDS011;23733;53.254;10.430;2023-08-31T05:25:43;5.23;;;3.40;;
37895;SDS011;23733;53.254;10.430;2023-08-31T05:28:10;6.90;;;3.70;;
37895;SDS011;23733;53.254;10.430;2023-08-31T05:30:36;4.80;;;3.43;;
37895;SDS011;23733;53.254;10.430;2023-08-31T05:33:02;7.20;;;3.97;;
37895;SDS011;23733;53.254;10.430;2023-08-31T05:35:29;6.00;;;3.53;;
37895;SDS011;23733;53.254;10.430;2023-08-31T05:37:56;9.27;;;4.00;;
37895;SDS011;23733;53.254;10.430;2023-08-31T05:40:22;7.00;;;3.70;;
37895;SDS011;23733;53.254;10.430;2023-08-31T05:42:48;10.00;;;3.80;;
37895;SDS011;23733;53.254;10.430;2023-08-31T05:45:15;9.90;;;4.20;;
37895;SDS011;23733;53.254;10.430;2023-08-31T05:47:41;5.53;;;3.90;;
37895;SDS011;23733;53.254;10.430;2023-08-31T05:50:07;7.40;;;3.73;;
37895;SDS011;23733;53.254;10.430;2023-08-31T05:52:34;7.50;;;3.97;;
37895;SDS011;23733;53.254;10.430;2023-08-31T05:55:00;5.87;;;3.60;;
37895;SDS011;23733;53.254;10.430;2023-08-31T05:57:26;5.60;;;3.70;;
37895;SDS011;23733;53.254;10.430;2023-08-31T05:59:54;7.17;;;3.80;;
37895;SDS011;23733;53.254;10.430;2023-08-31T06:02:21;7.83;;;4.30;;
37895;SDS011;23733;53.254;10.430;2023-08-31T06:04:47;5.50;;;3.60;;
37895;SDS011;23733;53.254;10.430;2023-08-31T06:07:14;7.07;;;3.80;;
37895;SDS011;23733;53.254;10.430;2023-08-31T06:09:40;5.60;;;3.60;;
37895;SDS011;23733;53.254;10.430;2023-08-31T06:12:06;6.00;;;3.40;;
37895;SDS011;23733;53.254;10.430;2023-08-31T06:14:33;6.60;;;3.60;;
37895;SDS011;23733;53.254;10.430;2023-08-31T06:16:59;7.87;;;3.00;;
37895;SDS011;23733;53.254;10.430;2023-08-31T06:19:25;8.90;;;3.30;;
37895;SDS011;23733;53.254;10.430;2023-08-31T06:21:52;4.00;;;2.67;;
37895;SDS011;23733;53.254;10.430;2023-08-31T06:24:18;7.17;;;2.90;;
37895;SDS011;23733;53.254;10.430;2023-08-31T06:26:44;6.30;;;3.13;;
37895;SDS011;23733;53.254;10.430;2023-08-31T06:29:10;5.20;;;3.30;;
37895;SDS011;23733;53.254;10.430;2023-08-31T06:31:36;6.33;;;3.47;;
37895;SDS011;23733;53.254;10.430;2023-08-31T06:34:02;9.07;;;3.60;;
37895;SDS011;23733;53.254;10.430;2023-08-31T06:36:29;5.60;;;3.00;;
37895;SDS011;23733;53.254;10.430;2023-08-31T06:38:55;8.00;;;3.50;;
37895;SDS011;23733;53.254;10.430;2023-08-31T06:41:21;5.63;;;3.40;;
37895;SDS011;23733;53.254;10.430;2023-08-31T06:43:47;6.40;;;3.27;;
37895;SDS011;23733;53.254;10.430;2023-08-31T06:46:14;8.03;;;3.60;;
37895;SDS011;23733;53.254;10.430;2023-08-31T06:48:40;5.13;;;3.13;;
37895;SDS011;23733;53.254;10.430;2023-08-31T06:51:05;11.50;;;3.67;;
37895;SDS011;23733;53.254;10.430;2023-08-31T06:53:32;5.17;;;3.37;;
37895;SDS011;23733;53.254;10.430;2023-08-31T06:55:58;6.73;;;3.13;;
37895;SDS011;23733;53.254;10.430;2023-08-31T06:58:24;6.40;;;3.50;;
37895;SDS011;23733;53.254;10.430;2023-08-31T07:00:50;4.03;;;2.90;;
37895;SDS011;23733;53.254;10.430;2023-08-31T07:03:16;6.97;;;3.90;;
37895;SDS011;23733;53.254;10.430;2023-08-31T07:05:42;6.33;;;3.40;;
37895;SDS011;23733;53.254;10.430;2023-08-31T07:08:08;6.30;;;3.47;;
37895;SDS011;23733;53.254;10.430;2023-08-31T07:10:35;6.50;;;3.47;;
37895;SDS011;23733;53.254;10.430;2023-08-31T07:13:04;4.73;;;2.90;;
37895;SDS011;23733;53.254;10.430;2023-08-31T07:15:31;4.67;;;3.30;;
37895;SDS011;23733;53.254;10.430;2023-08-31T07:17:57;4.70;;;3.37;;
37895;SDS011;23733;53.254;10.430;2023-08-31T07:20:23;7.70;;;3.10;;
37895;SDS011;23733;53.254;10.430;2023-08-31T07:22:49;5.97;;;2.90;;
37895;SDS011;23733;53.254;10.430;2023-08-31T07:25:15;7.03;;;2.80;;
37895;SDS011;23733;53.254;10.430;2023-08-31T07:27:41;8.47;;;3.50;;
37895;SDS011;23733;53.254;10.430;2023-08-31T07:30:08;6.30;;;2.97;;
37895;SDS011;23733;53.254;10.430;2023-08-31T07:32:38;5.10;;;2.77;;
37895;SDS011;23733;53.254;10.430;2023-08-31T07:35:05;4.30;;;2.70;;
37895;SDS011;23733;53.254;10.430;2023-08-31T07:37:32;3.90;;;2.57;;
37895;SDS011;23733;53.254;10.430;2023-08-31T07:39:58;6.40;;;3.07;;
37895;SDS011;23733;53.254;10.430;2023-08-31T07:42:26;5.93;;;2.87;;
37895;SDS011;23733;53.254;10.430;2023-08-31T07:44:52;7.53;;;3.33;;
37895;SDS011;23733;53.254;10.430;2023-08-31T07:47:18;4.47;;;2.70;;
37895;SDS011;23733;53.254;10.430;2023-08-31T07:49:45;4.23;;;2.57;;
37895;SDS011;23733;53.254;10.430;2023-08-31T07:52:11;3.97;;;2.53;;
37895;SDS011;23733;53.254;10.430;2023-08-31T07:54:38;3.77;;;2.27;;
37895;SDS011;23733;53.254;10.430;2023-08-31T07:57:04;4.47;;;2.20;;
37895;SDS011;23733;53.254;10.430;2023-08-31T07:59:31;4.00;;;2.23;;
37895;SDS011;23733;53.254;10.430;2023-08-31T08:01:57;3.83;;;1.93;;
37895;SDS011;23733;53.254;10.430;2023-08-31T08:04:23;4.03;;;1.67;;
37895;SDS011;23733;53.254;10.430;2023-08-31T08:06:51;5.87;;;2.03;;
37895;SDS011;23733;53.254;10.430;2023-08-31T08:09:17;3.20;;;1.90;;
37895;SDS011;23733;53.254;10.430;2023-08-31T08:11:44;3.73;;;1.83;;
37895;SDS011;23733;53.254;10.430;2023-08-31T08:14:10;5.83;;;2.50;;
37895;SDS011;23733;53.254;10.430;2023-08-31T08:16:37;5.03;;;2.53;;
37895;SDS011;23733;53.254;10.430;2023-08-31T08:19:03;5.00;;;2.43;;
37895;SDS011;23733;53.254;10.430;2023-08-31T08:21:29;3.70;;;2.00;;
37895;SDS011;23733;53.254;10.430;2023-08-31T08:23:56;3.53;;;2.20;;
37895;SDS011;23733;53.254;10.430;2023-08-31T08:26:22;3.57;;;2.50;;
37895;SDS011;23733;53.254;10.430;2023-08-31T08:28:48;10.20;;;3.03;;
37895;SDS011;23733;53.254;10.430;2023-08-31T08:31:15;5.60;;;2.70;;
37895;SDS011;23733;53.254;10.430;2023-08-31T08:33:41;5.43;;;2.70;;
37895;SDS011;23733;53.254;10.430;2023-08-31T08:36:07;3.83;;;2.60;;
37895;SDS011;23733;53.254;10.430;2023-08-31T08:38:33;4.17;;;2.70;;
37895;SDS011;23733;53.254;10.430;2023-08-31T08:41:06;5.13;;;2.70;;
37895;SDS011;23733;53.254;10.430;2023-08-31T08:43:33;5.50;;;2.83;;
37895;SDS011;23733;53.254;10.430;2023-08-31T08:46:01;5.53;;;2.43;;
37895;SDS011;23733;53.254;10.430;2023-08-31T08:48:30;4.93;;;2.33;;
37895;SDS011;23733;53.254;10.430;2023-08-31T08:50:57;3.47;;;2.07;;
37895;SDS011;23733;53.254;10.430;2023-08-31T08:53:23;3.10;;;1.90;;
37895;SDS011;23733;53.254;10.430;2023-08-31T08:55:49;3.23;;;2.00;;
37895;SDS011;23733;53.254;10.430;2023-08-31T08:58:16;5.30;;;2.07;;
37895;SDS011;23733;53.254;10.430;2023-08-31T09:00:42;7.13;;;2.27;;
37895;SDS011;23733;53.254;10.430;2023-08-31T09:03:09;3.37;;;1.70;;
37895;SDS011;23733;53.254;10.430;2023-08-31T09:05:35;2.67;;;1.77;;
37895;SDS011;23733;53.254;10.430;2023-08-31T09:08:05;4.43;;;1.50;;
37895;SDS011;23733;53.254;10.430;2023-08-31T09:10:40;6.33;;;1.83;;
37895;SDS011;23733;53.254;10.430;2023-08-31T09:13:07;3.30;;;1.60;;
37895;SDS011;23733;53.254;10.430;2023-08-31T09:15:41;2.20;;;1.37;;
37895;SDS011;23733;53.254;10.430;2023-08-31T09:18:12;3.57;;;1.63;;
37895;SDS011;23733;53.254;10.430;2023-08-31T09:20:48;3.00;;;1.63;;
37895;SDS011;23733;53.254;10.430;2023-08-31T09:23:15;3.43;;;1.97;;
37895;SDS011;23733;53.254;10.430;2023-08-31T09:25:46;3.40;;;1.70;;
37895;SDS011;23733;53.254;10.430;2023-08-31T09:28:14;3.77;;;1.70;;
37895;SDS011;23733;53.254;10.430;2023-08-31T09:30:41;3.10;;;1.30;;
37895;SDS011;23733;53.254;10.430;2023-08-31T09:33:08;3.33;;;1.30;;
37895;SDS011;23733;53.254;10.430;2023-08-31T09:35:41;2.80;;;1.50;;
37895;SDS011;23733;53.254;10.430;2023-08-31T09:38:12;1.53;;;1.00;;
37895;SDS011;23733;53.254;10.430;2023-08-31T09:40:40;1.70;;;1.00;;
37895;SDS011;23733;53.254;10.430;2023-08-31T09:43:06;2.03;;;0.90;;
37895;SDS011;23733;53.254;10.430;2023-08-31T09:45:33;1.90;;;1.17;;
37895;SDS011;23733;53.254;10.430;2023-08-31T09:48:01;3.17;;;1.30;;
37895;SDS011;23733;53.254;10.430;2023-08-31T09:50:31;2.10;;;1.43;;
37895;SDS011;23733;53.254;10.430;2023-08-31T09:53:03;2.13;;;1.53;;
37895;SDS011;23733;53.254;10.430;2023-08-31T09:55:30;2.87;;;1.37;;
37895;SDS011;23733;53.254;10.430;2023-08-31T09:57:58;2.63;;;1.50;;
37895;SDS011;23733;53.254;10.430;2023-08-31T10:00:28;3.67;;;1.70;;
37895;SDS011;23733;53.254;10.430;2023-08-31T10:03:02;3.37;;;1.43;;
37895;SDS011;23733;53.254;10.430;2023-08-31T10:05:29;1.57;;;1.20;;
37895;SDS011;23733;53.254;10.430;2023-08-31T10:07:59;1.77;;;1.10;;
37895;SDS011;23733;53.254;10.430;2023-08-31T10:10:26;1.70;;;0.93;;
37895;SDS011;23733;53.254;10.430;2023-08-31T10:12:53;2.00;;;1.20;;
37895;SDS011;23733;53.254;10.430;2023-08-31T10:15:20;2.33;;;1.00;;
37895;SDS011;23733;53.254;10.430;2023-08-31T10:17:46;1.73;;;0.93;;
37895;SDS011;23733;53.254;10.430;2023-08-31T10:20:14;4.57;;;1.37;;
37895;SDS011;23733;53.254;10.430;2023-08-31T10:22:40;1.80;;;1.30;;
37895;SDS011;23733;53.254;10.430;2023-08-31T10:25:07;2.50;;;1.50;;
37895;SDS011;23733;53.254;10.430;2023-08-31T10:27:41;1.50;;;1.40;;
37895;SDS011;23733;53.254;10.430;2023-08-31T10:35:54;2.00;;;1.40;;
37895;SDS011;23733;53.254;10.430;2023-08-31T10:38:25;2.27;;;1.43;;
37895;SDS011;23733;53.254;10.430;2023-08-31T10:46:16;2.53;;;1.40;;
37895;SDS011;23733;53.254;10.430;2023-08-31T10:48:49;3.03;;;1.50;;
37895;SDS011;23733;53.254;10.430;2023-08-31T10:51:16;2.43;;;1.57;;
37895;SDS011;23733;53.254;10.430;2023-08-31T10:53:45;2.77;;;1.23;;
37895;SDS011;23733;53.254;10.430;2023-08-31T10:56:12;2.97;;;1.57;;
37895;SDS011;23733;53.254;10.430;2023-08-31T10:58:39;2.30;;;1.40;;
37895;SDS011;23733;53.254;10.430;2023-08-31T11:01:05;2.93;;;1.50;;
37895;SDS011;23733;53.254;10.430;2023-08-31T11:03:31;2.57;;;1.50;;
37895;SDS011;23733;53.254;10.430;2023-08-31T11:05:57;1.30;;;1.20;;
37895;SDS011;23733;53.254;10.430;2023-08-31T11:08:24;2.77;;;1.30;;
37895;SDS011;23733;53.254;10.430;2023-08-31T11:10:51;1.87;;;1.40;;
37895;SDS011;23733;53.254;10.430;2023-08-31T11:13:18;2.23;;;1.57;;
37895;SDS011;23733;53.254;10.430;2023-08-31T11:15:45;1.70;;;1.10;;
37895;SDS011;23733;53.254;10.430;2023-08-31T11:18:12;2.53;;;1.10;;
37895;SDS011;23733;53.254;10.430;2023-08-31T11:20:41;3.63;;;1.20;;
37895;SDS011;23733;53.254;10.430;2023-08-31T11:23:08;1.97;;;1.37;;
37895;SDS011;23733;53.254;10.430;2023-08-31T11:25:34;3.13;;;1.40;;
37895;SDS011;23733;53.254;10.430;2023-08-31T11:28:02;2.60;;;1.20;;
37895;SDS011;23733;53.254;10.430;2023-08-31T11:30:35;1.50;;;1.20;;
37895;SDS011;23733;53.254;10.430;2023-08-31T11:33:03;2.10;;;1.07;;
37895;SDS011;23733;53.254;10.430;2023-08-31T11:35:37;1.67;;;1.20;;
37895;SDS011;23733;53.254;10.430;2023-08-31T11:38:05;2.40;;;1.23;;
37895;SDS011;23733;53.254;10.430;2023-08-31T11:40:31;3.63;;;1.10;;
37895;SDS011;23733;53.254;10.430;2023-08-31T11:42:58;2.47;;;1.00;;
37895;SDS011;23733;53.254;10.430;2023-08-31T11:45:28;1.90;;;1.10;;
37895;SDS011;23733;53.254;10.430;2023-08-31T11:47:55;1.67;;;1.03;;
37895;SDS011;23733;53.254;10.430;2023-08-31T11:50:23;1.73;;;1.10;;
37895;SDS011;23733;53.254;10.430;2023-08-31T11:52:50;2.30;;;1.20;;
37895;SDS011;23733;53.254;10.430;2023-08-31T11:55:18;2.13;;;0.90;;
37895;SDS011;23733;53.254;10.430;2023-08-31T11:57:52;1.80;;;1.10;;
37895;SDS011;23733;53.254;10.430;2023-08-31T12:00:20;1.93;;;1.30;;
37895;SDS011;23733;53.254;10.430;2023-08-31T12:02:55;1.67;;;1.00;;
37895;SDS011;23733;53.254;10.430;2023-08-31T12:05:21;1.33;;;0.97;;
37895;SDS011;23733;53.254;10.430;2023-08-31T12:07:48;2.60;;;1.30;;
37895;SDS011;23733;53.254;10.430;2023-08-31T12:10:16;1.17;;;1.00;;
37895;SDS011;23733;53.254;10.430;2023-08-31T12:12:42;3.63;;;1.20;;
37895;SDS011;23733;53.254;10.430;2023-08-31T12:15:10;1.70;;;1.07;;
37895;SDS011;23733;53.254;10.430;2023-08-31T12:17:37;1.30;;;1.00;;
37895;SDS011;23733;53.254;10.430;2023-08-31T12:20:05;1.37;;;1.10;;
37895;SDS011;23733;53.254;10.430;2023-08-31T12:22:33;1.80;;;1.03;;
37895;SDS011;23733;53.254;10.430;2023-08-31T12:25:00;2.03;;;1.20;;
37895;SDS011;23733;53.254;10.430;2023-08-31T12:27:26;1.63;;;1.20;;
37895;SDS011;23733;53.254;10.430;2023-08-31T12:29:53;2.23;;;1.10;;
37895;SDS011;23733;53.254;10.430;2023-08-31T12:32:20;2.07;;;1.30;;
37895;SDS011;23733;53.254;10.430;2023-08-31T12:34:46;2.00;;;1.30;;
37895;SDS011;23733;53.254;10.430;2023-08-31T12:37:13;1.90;;;1.10;;
37895;SDS011;23733;53.254;10.430;2023-08-31T12:39:39;2.10;;;1.13;;
37895;SDS011;23733;53.254;10.430;2023-08-31T12:42:07;3.67;;;1.23;;
37895;SDS011;23733;53.254;10.430;2023-08-31T12:44:34;1.23;;;1.10;;
37895;SDS011;23733;53.254;10.430;2023-08-31T12:47:00;4.27;;;1.40;;
37895;SDS011;23733;53.254;10.430;2023-08-31T12:49:27;2.80;;;1.20;;
37895;SDS011;23733;53.254;10.430;2023-08-31T12:51:53;2.67;;;1.20;;
37895;SDS011;23733;53.254;10.430;2023-08-31T12:54:19;1.20;;;1.00;;
37895;SDS011;23733;53.254;10.430;2023-08-31T12:56:45;1.77;;;1.10;;
37895;SDS011;23733;53.254;10.430;2023-08-31T12:59:12;2.73;;;1.30;;
37895;SDS011;23733;53.254;10.430;2023-08-31T13:01:38;2.77;;;1.50;;
37895;SDS011;23733;53.254;10.430;2023-08-31T13:04:04;2.20;;;1.30;;
37895;SDS011;23733;53.254;10.430;2023-08-31T13:06:31;2.97;;;1.40;;
37895;SDS011;23733;53.254;10.430;2023-08-31T13:08:57;1.60;;;1.10;;
37895;SDS011;23733;53.254;10.430;2023-08-31T13:11:23;2.57;;;1.20;;
37895;SDS011;23733;53.254;10.430;2023-08-31T13:13:50;1.70;;;1.20;;
37895;SDS011;23733;53.254;10.430;2023-08-31T13:16:17;2.00;;;1.20;;
37895;SDS011;23733;53.254;10.430;2023-08-31T13:18:43;8.80;;;1.80;;
37895;SDS011;23733;53.254;10.430;2023-08-31T13:21:10;2.63;;;1.20;;
37895;SDS011;23733;53.254;10.430;2023-08-31T13:23:36;1.83;;;1.10;;
37895;SDS011;23733;53.254;10.430;2023-08-31T13:26:02;1.97;;;1.17;;
37895;SDS011;23733;53.254;10.430;2023-08-31T13:28:28;2.40;;;1.60;;
37895;SDS011;23733;53.254;10.430;2023-08-31T13:30:57;2.33;;;1.03;;
37895;SDS011;23733;53.254;10.430;2023-08-31T13:33:28;5.20;;;1.23;;
37895;SDS011;23733;53.254;10.430;2023-08-31T13:35:58;1.93;;;1.00;;
37895;SDS011;23733;53.254;10.430;2023-08-31T13:38:24;2.40;;;1.00;;
37895;SDS011;23733;53.254;10.430;2023-08-31T13:40:54;2.97;;;0.90;;
37895;SDS011;23733;53.254;10.430;2023-08-31T13:43:23;4.23;;;1.20;;
37895;SDS011;23733;53.254;10.430;2023-08-31T13:45:50;10.90;;;1.30;;
37895;SDS011;23733;53.254;10.430;2023-08-31T13:48:16;11.17;;;1.80;;
37895;SDS011;23733;53.254;10.430;2023-08-31T13:50:42;2.63;;;1.17;;
37895;SDS011;23733;53.254;10.430;2023-08-31T13:53:08;1.50;;;0.90;;
37895;SDS011;23733;53.254;10.430;2023-08-31T13:55:34;1.03;;;0.80;;
37895;SDS011;23733;53.254;10.430;2023-08-31T13:58:04;0.67;;;0.50;;
37895;SDS011;23733;53.254;10.430;2023-08-31T14:00:32;1.00;;;0.70;;
37895;SDS011;23733;53.254;10.430;2023-08-31T14:02:59;2.03;;;0.80;;
37895;SDS011;23733;53.254;10.430;2023-08-31T14:05:31;1.03;;;0.80;;
37895;SDS011;23733;53.254;10.430;2023-08-31T14:07:58;0.90;;;0.77;;
37895;SDS011;23733;53.254;10.430;2023-08-31T14:10:26;1.67;;;1.10;;
37895;SDS011;23733;53.254;10.430;2023-08-31T14:12:53;2.00;;;0.80;;
37895;SDS011;23733;53.254;10.430;2023-08-31T14:15:19;1.97;;;0.80;;
37895;SDS011;23733;53.254;10.430;2023-08-31T14:17:46;1.27;;;0.90;;
37895;SDS011;23733;53.254;10.430;2023-08-31T14:20:12;1.70;;;0.83;;
37895;SDS011;23733;53.254;10.430;2023-08-31T14:22:39;3.27;;;1.00;;
37895;SDS011;23733;53.254;10.430;2023-08-31T14:25:11;3.50;;;0.77;;
37895;SDS011;23733;53.254;10.430;2023-08-31T14:27:37;1.90;;;0.90;;
37895;SDS011;23733;53.254;10.430;2023-08-31T14:30:04;4.13;;;0.90;;
37895;SDS011;23733;53.254;10.430;2023-08-31T14:32:31;1.03;;;0.80;;
37895;SDS011;23733;53.254;10.430;2023-08-31T14:34:57;2.17;;;0.90;;
37895;SDS011;23733;53.254;10.430;2023-08-31T14:37:24;1.30;;;0.60;;
37895;SDS011;23733;53.254;10.430;2023-08-31T14:39:50;0.80;;;0.80;;
37895;SDS011;23733;53.254;10.430;2023-08-31T14:42:17;2.10;;;1.00;;
37895;SDS011;23733;53.254;10.430;2023-08-31T14:44:47;1.67;;;0.70;;
37895;SDS011;23733;53.254;10.430;2023-08-31T14:47:14;1.83;;;1.00;;
37895;SDS011;23733;53.254;10.430;2023-08-31T14:49:40;1.93;;;0.70;;
37895;SDS011;23733;53.254;10.430;2023-08-31T14:52:06;1.43;;;0.90;;